createdAt,value
2022-12-03T00:01:37.589Z,7.60
2022-12-03T00:04:06.007Z,10.70
2022-12-03T00:06:34.913Z,10.60
2022-12-03T00:09:04.568Z,10.40
2022-12-03T00:11:32.856Z,9.90
2022-12-03T00:14:00.992Z,11.20
2022-12-03T00:16:29.473Z,10.60
2022-12-03T00:18:58.128Z,10.10
2022-12-03T00:21:26.366Z,11.00
2022-12-03T00:23:54.636Z,14.00
2022-12-03T00:26:22.921Z,10.30
2022-12-03T00:28:52.466Z,11.30
2022-12-03T00:31:24.844Z,13.40
2022-12-03T00:33:53.662Z,10.80
2022-12-03T00:36:22.129Z,6.20
2022-12-03T00:38:50.721Z,12.40
2022-12-03T00:41:18.956Z,10.00
2022-12-03T00:43:47.254Z,13.60
2022-12-03T00:46:20.897Z,11.20
2022-12-03T00:48:49.621Z,9.60
2022-12-03T00:51:18.075Z,12.90
2022-12-03T00:53:46.292Z,11.50
2022-12-03T00:56:14.558Z,9.10
2022-12-03T00:58:42.834Z,11.60
2022-12-03T01:01:11.210Z,12.00
2022-12-03T01:03:39.394Z,10.70
2022-12-03T01:06:07.556Z,12.40
2022-12-03T01:08:35.712Z,11.30
2022-12-03T01:11:04.427Z,10.40
2022-12-03T01:13:32.589Z,9.50
2022-12-03T01:16:00.912Z,10.80
2022-12-03T01:18:29.356Z,8.80
2022-12-03T01:20:57.536Z,10.60
2022-12-03T01:23:25.715Z,11.10
2022-12-03T01:25:53.911Z,8.50
2022-12-03T01:28:22.051Z,11.40
2022-12-03T01:31:08.643Z,9.00
2022-12-03T01:33:36.824Z,12.00
2022-12-03T01:36:05.420Z,10.50
2022-12-03T01:38:33.700Z,10.20
2022-12-03T01:41:02.634Z,10.40
2022-12-03T01:43:32.989Z,9.40
2022-12-03T01:46:01.908Z,11.50
2022-12-03T01:48:34.929Z,11.30
2022-12-03T01:51:03.569Z,10.30
2022-12-03T01:53:31.749Z,10.20
2022-12-03T01:55:59.932Z,11.20
2022-12-03T01:58:29.945Z,10.60
2022-12-03T02:01:10.504Z,9.10
2022-12-03T02:03:39.136Z,9.10
2022-12-03T02:06:21.916Z,11.60
2022-12-03T02:08:51.409Z,11.80
2022-12-03T02:11:25.692Z,9.30
2022-12-03T02:13:59.849Z,10.40
2022-12-03T02:16:29.206Z,10.20
2022-12-03T02:18:58.539Z,10.40
2022-12-03T02:21:45.612Z,11.30
2022-12-03T02:24:20.180Z,9.70
2022-12-03T02:26:48.663Z,9.40
2022-12-03T02:29:17.045Z,10.30
2022-12-03T02:31:45.503Z,10.80
2022-12-03T02:34:34.543Z,10.80
2022-12-03T02:37:04.188Z,8.70
2022-12-03T02:39:35.650Z,9.60
2022-12-03T02:42:24.613Z,9.20
2022-12-03T02:44:53.758Z,9.10
2022-12-03T02:47:23.846Z,8.90
2022-12-03T02:49:52.920Z,10.10
2022-12-03T02:52:21.180Z,10.00
2022-12-03T02:54:49.889Z,10.60
2022-12-03T02:57:18.202Z,8.40
2022-12-03T02:59:46.846Z,9.90
2022-12-03T03:02:15.488Z,9.80
2022-12-03T03:04:44.827Z,8.60
2022-12-03T03:07:14.324Z,10.50
2022-12-03T03:09:43.226Z,12.30
2022-12-03T03:12:12.100Z,11.30
2022-12-03T03:14:40.387Z,7.70
2022-12-03T03:17:08.677Z,11.40
2022-12-03T03:19:36.955Z,10.20
2022-12-03T03:22:05.648Z,9.40
2022-12-03T03:24:33.902Z,11.70
2022-12-03T03:27:02.180Z,10.70
2022-12-03T03:29:32.253Z,11.90
2022-12-03T03:32:02.165Z,10.50
2022-12-03T03:34:33.023Z,11.20
2022-12-03T03:37:01.337Z,10.70
2022-12-03T03:39:29.615Z,10.80
2022-12-03T03:41:57.895Z,10.50
2022-12-03T03:44:26.156Z,11.40
2022-12-03T03:46:55.373Z,11.40
2022-12-03T03:49:23.748Z,11.40
2022-12-03T03:51:52.220Z,11.00
2022-12-03T03:54:20.800Z,9.90
2022-12-03T03:56:49.394Z,10.60
2022-12-03T03:59:18.027Z,10.80
2022-12-03T04:01:46.581Z,9.70
2022-12-03T04:04:24.802Z,10.10
2022-12-03T04:06:53.376Z,9.20
2022-12-03T04:09:21.622Z,10.40
2022-12-03T04:12:08.560Z,9.40
2022-12-03T04:14:36.705Z,10.80
2022-12-03T04:17:05.013Z,10.30
2022-12-03T04:19:33.079Z,11.60
2022-12-03T04:22:19.870Z,11.30
2022-12-03T04:24:48.479Z,12.10
2022-12-03T04:27:35.474Z,11.00
2022-12-03T04:30:04.014Z,10.60
2022-12-03T04:32:51.068Z,11.30
2022-12-03T04:35:38.540Z,9.60
2022-12-03T04:38:06.983Z,11.90
2022-12-03T04:41:10.579Z,8.40
2022-12-03T04:43:58.739Z,9.90
2022-12-03T04:46:26.903Z,10.50
2022-12-03T04:48:55.179Z,11.00
2022-12-03T04:51:23.369Z,9.40
2022-12-03T04:53:51.511Z,10.40
2022-12-03T04:56:19.694Z,10.90
2022-12-03T04:58:47.975Z,10.20
2022-12-03T05:01:17.436Z,10.00
2022-12-03T05:03:45.958Z,10.60
2022-12-03T05:06:14.139Z,10.70
2022-12-03T05:08:42.396Z,11.00
2022-12-03T05:11:10.895Z,10.20
2022-12-03T05:13:39.059Z,9.60
2022-12-03T05:16:07.839Z,9.30
2022-12-03T05:18:35.915Z,9.60
2022-12-03T05:21:04.825Z,10.80
2022-12-03T05:23:33.716Z,10.20
2022-12-03T05:26:02.192Z,10.60
2022-12-03T05:28:30.557Z,10.30
2022-12-03T05:30:58.788Z,9.90
2022-12-03T05:33:27.012Z,10.40
2022-12-03T05:35:55.402Z,11.70
2022-12-03T05:38:23.771Z,8.90
2022-12-03T05:40:51.936Z,11.70
2022-12-03T05:43:20.126Z,11.80
2022-12-03T05:45:48.390Z,11.50
2022-12-03T05:48:17.387Z,11.60
2022-12-03T05:50:47.107Z,9.40
2022-12-03T05:53:19.786Z,10.40
2022-12-03T05:55:47.961Z,11.00
2022-12-03T05:58:16.340Z,12.60
2022-12-03T06:00:45.733Z,12.60
2022-12-03T06:03:14.053Z,13.00
2022-12-03T06:05:42.297Z,12.60
2022-12-03T06:08:10.614Z,13.40
2022-12-03T06:10:39.045Z,14.10
2022-12-03T06:13:07.226Z,13.50
2022-12-03T06:15:40.392Z,11.40
2022-12-03T06:18:12.179Z,10.80
2022-12-03T06:20:40.545Z,11.10
2022-12-03T06:23:08.719Z,9.40
2022-12-03T06:25:37.207Z,12.10
2022-12-03T06:28:06.218Z,13.30
2022-12-03T06:30:36.036Z,8.90
2022-12-03T06:33:04.450Z,12.10
2022-12-03T06:35:32.772Z,12.40
2022-12-03T06:38:01.248Z,13.50
2022-12-03T06:40:29.763Z,12.70
2022-12-03T06:42:59.099Z,12.60
2022-12-03T06:45:28.130Z,13.20
2022-12-03T06:47:56.301Z,12.50
2022-12-03T06:50:24.574Z,12.00
2022-12-03T06:52:52.962Z,12.70
2022-12-03T06:55:21.131Z,10.90
2022-12-03T06:57:49.741Z,9.50
2022-12-03T07:00:18.818Z,9.70
2022-12-03T07:02:47.359Z,10.70
2022-12-03T07:05:16.180Z,12.30
2022-12-03T07:07:47.423Z,12.60
2022-12-03T07:10:16.010Z,12.60
2022-12-03T07:12:44.615Z,12.40
2022-12-03T07:15:13.387Z,13.40
2022-12-03T07:17:41.749Z,11.40
2022-12-03T07:20:10.962Z,10.90
2022-12-03T07:22:39.349Z,11.80
2022-12-03T07:25:08.542Z,11.70
2022-12-03T07:27:36.710Z,10.50
2022-12-03T07:30:08.422Z,11.10
2022-12-03T07:32:36.842Z,12.60
2022-12-03T07:35:07.781Z,11.50
2022-12-03T07:37:36.285Z,10.40
2022-12-03T07:40:06.353Z,9.60
2022-12-03T07:42:34.763Z,12.90
2022-12-03T07:45:03.587Z,11.90
2022-12-03T07:47:32.340Z,13.50
2022-12-03T07:50:00.725Z,13.60
2022-12-03T07:52:29.205Z,14.20
2022-12-03T07:54:58.207Z,12.20
2022-12-03T07:57:28.006Z,13.70
2022-12-03T07:59:56.786Z,10.50
2022-12-03T08:02:25.222Z,12.10
2022-12-03T08:04:54.991Z,12.40
2022-12-03T08:07:24.409Z,11.90
2022-12-03T08:09:53.483Z,11.50
2022-12-03T08:12:45.736Z,13.30
2022-12-03T08:15:20.954Z,8.40
2022-12-03T08:17:56.471Z,9.90
2022-12-03T08:20:28.576Z,13.20
2022-12-03T08:22:57.672Z,10.70
2022-12-03T08:25:29.859Z,10.40
2022-12-03T08:28:17.140Z,13.00
2022-12-03T08:30:59.993Z,13.40
2022-12-03T08:33:35.926Z,10.70
2022-12-03T08:36:25.694Z,12.70
2022-12-03T08:39:01.083Z,11.40
2022-12-03T08:41:49.075Z,9.10
2022-12-03T08:44:28.017Z,11.60
2022-12-03T08:47:13.271Z,10.90
2022-12-03T08:49:45.030Z,15.00
2022-12-03T08:52:19.703Z,13.90
2022-12-03T08:54:53.557Z,12.80
2022-12-03T08:57:27.983Z,13.90
2022-12-03T09:00:15.641Z,11.60
2022-12-03T09:02:52.438Z,11.40
2022-12-03T09:05:24.241Z,10.80
2022-12-03T09:07:52.771Z,12.40
2022-12-03T09:10:21.923Z,12.00
2022-12-03T09:12:50.527Z,13.70
2022-12-03T09:15:18.904Z,14.60
2022-12-03T09:17:47.375Z,14.90
2022-12-03T09:20:16.166Z,15.20
2022-12-03T09:22:44.749Z,13.40
2022-12-03T09:25:13.233Z,14.20
2022-12-03T09:27:41.715Z,10.50
2022-12-03T09:30:10.979Z,14.20
2022-12-03T09:32:39.988Z,12.80
2022-12-03T09:35:10.174Z,11.80
2022-12-03T09:37:38.962Z,12.30
2022-12-03T09:40:10.136Z,15.30
2022-12-03T09:42:40.152Z,13.00
2022-12-03T09:45:12.613Z,11.20
2022-12-03T09:47:46.824Z,11.40
2022-12-03T09:50:20.896Z,13.40
2022-12-03T09:52:52.525Z,11.70
2022-12-03T09:55:24.859Z,16.90
2022-12-03T09:57:55.844Z,14.70
2022-12-03T10:00:27.495Z,11.40
2022-12-03T10:03:04.491Z,16.40
2022-12-03T10:05:35.131Z,17.20
2022-12-03T10:08:06.908Z,12.90
2022-12-03T10:10:37.438Z,10.80
2022-12-03T10:13:07.923Z,16.70
2022-12-03T10:15:38.052Z,14.80
2022-12-03T10:18:22.171Z,14.80
2022-12-03T10:20:53.391Z,14.30
2022-12-03T10:23:31.479Z,17.60
2022-12-03T10:26:05.973Z,15.30
2022-12-03T10:28:41.059Z,14.00
2022-12-03T10:31:12.644Z,18.60
2022-12-03T10:33:47.654Z,16.10
2022-12-03T10:36:18.695Z,16.80
2022-12-03T10:39:05.362Z,14.60
2022-12-03T10:41:34.055Z,13.40
2022-12-03T10:44:32.137Z,16.80
2022-12-03T10:47:12.590Z,16.20
2022-12-03T10:49:42.102Z,17.10
2022-12-03T10:52:25.953Z,19.40
2022-12-03T10:54:56.537Z,16.80
2022-12-03T10:57:27.257Z,15.60
2022-12-03T10:59:56.023Z,15.80
2022-12-03T11:02:26.134Z,14.80
2022-12-03T11:04:55.718Z,16.30
2022-12-03T11:07:26.529Z,15.20
2022-12-03T11:09:55.754Z,16.80
2022-12-03T11:12:28.119Z,16.10
2022-12-03T11:14:57.938Z,15.50
2022-12-03T11:17:52.329Z,15.60
2022-12-03T11:20:23.015Z,16.60
2022-12-03T11:22:56.863Z,13.60
2022-12-03T11:25:25.354Z,12.60
2022-12-03T11:28:12.895Z,10.70
2022-12-03T11:30:54.919Z,14.90
2022-12-03T11:33:29.812Z,16.50
2022-12-03T11:36:05.311Z,14.00
2022-12-03T11:38:52.393Z,15.40
2022-12-03T11:41:33.955Z,14.80
2022-12-03T11:44:06.221Z,11.90
2022-12-03T11:46:37.747Z,17.10
2022-12-03T11:49:35.043Z,18.90
2022-12-03T11:52:20.916Z,14.00
2022-12-03T11:54:56.003Z,15.50
2022-12-03T11:57:39.219Z,14.70
2022-12-03T12:00:23.303Z,15.20
2022-12-03T12:02:55.224Z,16.20
2022-12-03T12:05:24.204Z,17.30
2022-12-03T12:07:53.712Z,11.10
2022-12-03T12:10:47.661Z,15.60
2022-12-03T12:13:25.341Z,14.80
2022-12-03T12:15:54.453Z,16.30
2022-12-03T12:18:46.132Z,19.30
2022-12-03T12:21:43.042Z,17.40
2022-12-03T12:24:41.386Z,18.00
2022-12-03T12:27:17.495Z,16.50
2022-12-03T12:29:55.872Z,16.30
2022-12-03T12:32:39.452Z,18.20
2022-12-03T12:35:24.507Z,17.60
2022-12-03T12:37:59.807Z,17.30
2022-12-03T12:40:34.140Z,18.80
2022-12-03T12:43:20.340Z,18.40
2022-12-03T12:45:56.704Z,17.30
2022-12-03T12:48:35.510Z,17.80
2022-12-03T12:51:12.380Z,18.30
2022-12-03T12:53:44.176Z,20.20
2022-12-03T12:56:25.130Z,19.50
2022-12-03T12:58:54.538Z,18.70
2022-12-03T13:01:30.673Z,17.10
2022-12-03T13:04:00.288Z,17.00
2022-12-03T13:06:32.503Z,20.50
2022-12-03T13:09:04.325Z,19.30
2022-12-03T13:11:47.415Z,17.60
2022-12-03T13:14:22.704Z,20.20
2022-12-03T13:16:53.665Z,21.70
2022-12-03T13:19:27.807Z,20.20
2022-12-03T13:22:00.391Z,19.70
2022-12-03T13:24:41.500Z,22.90
2022-12-03T13:27:23.390Z,22.60
2022-12-03T13:30:00.644Z,22.10
2022-12-03T13:32:35.157Z,20.00
2022-12-03T13:35:10.367Z,19.70
2022-12-03T13:37:39.546Z,17.10
2022-12-03T13:40:24.104Z,18.40
2022-12-03T13:42:53.555Z,21.00
2022-12-03T13:45:24.847Z,20.10
2022-12-03T13:47:56.527Z,22.40
2022-12-03T13:50:40.046Z,21.40
2022-12-03T13:53:12.151Z,24.30
2022-12-03T13:55:45.610Z,21.00
2022-12-03T13:58:14.090Z,20.60
2022-12-03T14:00:42.755Z,21.20
2022-12-03T14:03:11.551Z,21.80
2022-12-03T14:05:40.348Z,18.20
2022-12-03T14:08:09.179Z,22.80
2022-12-03T14:10:37.723Z,22.50
2022-12-03T14:13:06.278Z,21.20
2022-12-03T14:15:35.843Z,24.40
2022-12-03T14:18:05.025Z,21.60
2022-12-03T14:20:35.558Z,22.70
2022-12-03T14:23:05.177Z,25.20
2022-12-03T14:25:34.375Z,21.20
2022-12-03T14:28:05.902Z,24.20
2022-12-03T14:30:35.353Z,22.00
2022-12-03T14:33:04.186Z,23.60
2022-12-03T14:35:32.577Z,23.00
2022-12-03T14:38:01.358Z,22.80
2022-12-03T14:40:30.988Z,22.70
2022-12-03T14:43:00.269Z,24.40
2022-12-03T14:45:30.416Z,20.60
2022-12-03T14:47:58.870Z,24.60
2022-12-03T14:50:27.254Z,22.70
2022-12-03T14:52:55.870Z,25.70
2022-12-03T14:55:24.413Z,23.90
2022-12-03T14:57:53.002Z,25.30
2022-12-03T15:00:23.427Z,20.70
2022-12-03T15:02:51.840Z,24.60
2022-12-03T15:05:27.880Z,20.90
2022-12-03T15:07:57.422Z,24.50
2022-12-03T15:10:25.966Z,24.50
2022-12-03T15:12:55.660Z,24.30
2022-12-03T15:15:24.002Z,23.10
2022-12-03T15:17:53.174Z,22.30
2022-12-03T15:20:21.738Z,22.90
2022-12-03T15:22:50.304Z,23.80
2022-12-03T15:25:25.700Z,25.00
2022-12-03T15:27:54.226Z,22.20
2022-12-03T15:30:22.599Z,23.50
2022-12-03T15:32:51.181Z,21.00
2022-12-03T15:35:19.538Z,23.40
2022-12-03T15:37:47.846Z,21.80
2022-12-03T15:40:16.333Z,20.80
2022-12-03T15:42:44.813Z,22.30
2022-12-03T15:45:15.331Z,23.40
2022-12-03T15:47:44.834Z,21.80
2022-12-03T15:50:14.770Z,23.10
2022-12-03T15:52:43.455Z,20.70
2022-12-03T15:55:12.129Z,21.10
2022-12-03T15:57:40.716Z,22.40
2022-12-03T16:00:11.535Z,21.40
2022-12-03T16:02:50.752Z,20.60
2022-12-03T16:05:22.337Z,17.90
2022-12-03T16:07:54.227Z,18.60
2022-12-03T16:10:22.770Z,18.50
2022-12-03T16:12:51.937Z,18.80
2022-12-03T16:15:26.477Z,19.50
2022-12-03T16:17:55.696Z,18.00
2022-12-03T16:20:24.204Z,15.90
2022-12-03T16:22:52.652Z,18.70
2022-12-03T16:25:21.039Z,17.10
2022-12-03T16:27:49.624Z,16.00
2022-12-03T16:30:18.317Z,18.10
2022-12-03T16:32:46.898Z,18.50
2022-12-03T16:35:15.309Z,18.00
2022-12-03T16:37:43.851Z,18.50
2022-12-03T16:40:12.741Z,16.50
2022-12-03T16:42:41.253Z,17.70
2022-12-03T16:45:11.055Z,18.00
2022-12-03T16:47:39.938Z,18.10
2022-12-03T16:50:14.584Z,18.00
2022-12-03T16:52:48.484Z,17.90
2022-12-03T16:55:17.592Z,17.10
2022-12-03T16:57:46.449Z,19.10
2022-12-03T17:00:16.487Z,17.70
2022-12-03T17:02:45.586Z,18.50
2022-12-03T17:05:14.859Z,18.20
2022-12-03T17:07:44.278Z,18.30
2022-12-03T17:10:13.514Z,17.80
2022-12-03T17:13:08.255Z,17.50
2022-12-03T17:15:31.801Z,16.80
2022-12-03T17:18:01.536Z,17.90
2022-12-03T17:20:32.300Z,16.20
2022-12-03T17:23:02.480Z,18.00
2022-12-03T17:25:31.703Z,17.70
2022-12-03T17:28:01.380Z,20.50
2022-12-03T17:30:30.545Z,19.20
2022-12-03T17:32:59.527Z,20.60
2022-12-03T17:35:29.332Z,19.90
2022-12-03T17:37:59.332Z,20.50
2022-12-03T17:40:29.243Z,20.50
2022-12-03T17:42:58.649Z,19.60
2022-12-03T17:45:28.248Z,18.40
2022-12-03T17:47:58.073Z,20.50
2022-12-03T17:50:26.859Z,18.90
2022-12-03T17:52:55.746Z,19.80
2022-12-03T17:55:33.871Z,20.10
2022-12-03T17:58:06.729Z,20.80
2022-12-03T18:00:35.210Z,20.30
2022-12-03T18:03:03.801Z,18.50
2022-12-03T18:05:32.283Z,20.70
2022-12-03T18:08:00.907Z,19.10
2022-12-03T18:10:30.099Z,20.40
2022-12-03T18:13:01.971Z,20.20
2022-12-03T18:15:32.874Z,19.00
2022-12-03T18:18:02.573Z,20.00
2022-12-03T18:20:33.549Z,17.50
2022-12-03T18:23:02.838Z,19.30
2022-12-03T18:25:33.005Z,20.80
2022-12-03T18:28:02.551Z,21.70
2022-12-03T18:30:31.520Z,18.50
2022-12-03T18:33:01.914Z,20.60
2022-12-03T18:35:34.371Z,21.00
2022-12-03T18:38:03.397Z,20.00
2022-12-03T18:40:32.413Z,21.70
2022-12-03T18:43:01.527Z,19.90
2022-12-03T18:45:30.848Z,19.70
2022-12-03T18:48:00.659Z,18.50
2022-12-03T18:50:30.726Z,22.60
2022-12-03T18:53:00.868Z,21.10
2022-12-03T18:55:35.246Z,20.90
2022-12-03T18:58:04.503Z,22.00
2022-12-03T19:00:36.128Z,21.10
2022-12-03T19:03:06.235Z,24.90
2022-12-03T19:05:37.703Z,19.80
2022-12-03T19:08:15.059Z,19.70
2022-12-03T19:10:45.618Z,20.30
2022-12-03T19:13:16.602Z,22.80
2022-12-03T19:15:50.245Z,23.40
2022-12-03T19:18:21.051Z,23.90
2022-12-03T19:20:51.647Z,21.40
2022-12-03T19:23:20.946Z,23.10
2022-12-03T19:26:01.840Z,21.60
2022-12-03T19:28:31.429Z,22.10
2022-12-03T19:31:02.421Z,21.60
2022-12-03T19:33:32.449Z,21.80
2022-12-03T19:36:04.249Z,22.60
2022-12-03T19:38:34.565Z,22.70
2022-12-03T19:41:06.890Z,23.20
2022-12-03T19:43:37.653Z,21.60
2022-12-03T19:46:11.134Z,21.60
2022-12-03T19:48:40.981Z,21.00
2022-12-03T19:51:33.068Z,19.10
2022-12-03T19:54:01.555Z,21.50
2022-12-03T19:56:33.507Z,20.20
2022-12-03T19:59:03.596Z,21.80
2022-12-03T20:01:36.346Z,20.00
2022-12-03T20:04:09.211Z,22.60
2022-12-03T20:06:40.576Z,22.80
2022-12-03T20:09:17.871Z,20.90
2022-12-03T20:11:50.150Z,20.10
2022-12-03T20:14:20.585Z,22.60
2022-12-03T20:16:49.827Z,22.90
2022-12-03T20:19:18.866Z,22.60
2022-12-03T20:21:47.657Z,23.40
2022-12-03T20:24:18.452Z,23.70
2022-12-03T20:26:48.616Z,21.60
2022-12-03T20:29:18.615Z,22.40
2022-12-03T20:31:48.535Z,23.80
2022-12-03T20:34:21.082Z,26.30
2022-12-03T20:36:51.997Z,25.10
2022-12-03T20:39:20.648Z,25.90
2022-12-03T20:41:49.359Z,27.80
2022-12-03T20:44:18.366Z,30.00
2022-12-03T20:46:48.010Z,25.60
2022-12-03T20:49:17.284Z,27.00
2022-12-03T20:51:51.054Z,26.50
2022-12-03T20:54:20.210Z,26.30
2022-12-03T20:56:49.751Z,27.50
2022-12-03T20:59:19.745Z,27.20
2022-12-03T21:01:49.373Z,27.50
2022-12-03T21:04:18.826Z,27.90
2022-12-03T21:06:49.401Z,17.60
2022-12-03T21:09:19.186Z,27.10
2022-12-03T21:11:48.255Z,26.50
2022-12-03T21:14:19.576Z,29.00
2022-12-03T21:19:40.575Z,28.80
2022-12-03T21:22:09.522Z,28.70
2022-12-03T21:24:40.128Z,28.40
2022-12-03T21:27:09.050Z,28.20
2022-12-03T21:29:39.214Z,28.60
2022-12-03T21:32:08.565Z,28.50
2022-12-03T21:34:38.282Z,28.80
2022-12-03T21:37:07.049Z,28.00
2022-12-03T21:39:36.270Z,26.60
2022-12-03T21:42:33.390Z,26.30
2022-12-03T21:44:55.145Z,24.80
2022-12-03T21:47:25.141Z,26.30
2022-12-03T21:49:55.066Z,26.60
2022-12-03T21:52:24.851Z,26.00
2022-12-03T21:54:55.052Z,27.90
2022-12-03T21:57:24.770Z,27.30
2022-12-03T21:59:55.226Z,28.20
2022-12-03T22:02:24.350Z,26.20
2022-12-03T22:04:53.653Z,26.80
2022-12-03T22:07:22.526Z,28.70
2022-12-03T22:09:51.148Z,26.90
2022-12-03T22:12:20.098Z,27.50
2022-12-03T22:14:48.971Z,26.30
2022-12-03T22:17:20.539Z,26.30
2022-12-03T22:19:51.188Z,25.00
2022-12-03T22:22:21.074Z,27.50
2022-12-03T22:24:50.081Z,24.40
2022-12-03T22:27:18.661Z,25.80
2022-12-03T22:29:47.065Z,27.10
2022-12-03T22:32:16.466Z,28.40
2022-12-03T22:34:45.045Z,26.90
2022-12-03T22:37:14.574Z,27.70
2022-12-03T22:39:44.181Z,25.00
2022-12-03T22:42:12.935Z,28.00
2022-12-03T22:44:42.227Z,23.50
2022-12-03T22:47:11.966Z,27.30
2022-12-03T22:49:40.561Z,26.80
2022-12-03T22:52:10.415Z,27.30
2022-12-03T22:54:39.852Z,27.50
2022-12-03T22:57:08.636Z,27.20
2022-12-03T22:59:38.346Z,26.20
2022-12-03T23:02:07.225Z,24.10
2022-12-03T23:04:35.814Z,26.10
2022-12-03T23:07:05.827Z,26.70
2022-12-03T23:09:34.516Z,28.20
2022-12-03T23:12:03.004Z,27.40
2022-12-03T23:14:32.095Z,24.80
2022-12-03T23:17:02.011Z,27.50
2022-12-03T23:19:31.000Z,27.80
2022-12-03T23:21:59.485Z,27.60
2022-12-03T23:24:29.021Z,28.60
2022-12-03T23:26:57.825Z,29.00
2022-12-03T23:29:26.883Z,27.80
2022-12-03T23:31:57.626Z,26.20
2022-12-03T23:34:26.117Z,25.80
2022-12-03T23:36:54.471Z,27.00
2022-12-03T23:39:22.908Z,27.90
2022-12-03T23:41:53.120Z,28.50
2022-12-03T23:44:21.745Z,26.90
2022-12-03T23:46:50.016Z,26.60
2022-12-03T23:49:18.511Z,26.30
2022-12-03T23:51:47.224Z,26.50
2022-12-03T23:54:15.676Z,23.90
2022-12-03T23:56:45.376Z,26.90
2022-12-03T23:59:13.863Z,28.30
